Minami Daito Airport
ROMD : now visible

Airfield :











YOU CAN JOIN US ON...

 
LOGIN :

Register | Disclaimer

   EN    FR    IT 

 









Legend :    VFR   Marginal VFR   IFR   Intensive IFR   Very Intensive IFR
Visi :
Ceiling :
>= 8 km
>= 3000ft
5 to 8 km
1000 to 3000 ft
1500m to 5 km
500 to 1000 ft
800 to 1500m
200 to 500 ft
< 800m
< 200 ft
Symbols :   Thunderstorms  Fog  Heavy snow  Heavy precipitations  Wind > 20 kt







- Airport Elevation : 167 ft
- IATA code : MMD


ROMD - Minami Daito

CURRENT METAR :
  • 210600Z AUTO 14009KT 100V170 9999 FEW013 30/27 Q1008

EXPIRED METARs :
  • 210500Z AUTO VRB06KT 9999 SCT013 BKN027 BKN038 29/27 Q1008
  • 210438Z AUTO 13005KT 050V190 9999 -RA FEW011 SCT013 BKN023 28/26 Q1009 RMK A2980
  • 210400Z AUTO 10004KT 040V170 9999 FEW002 SCT021 BKN031 28/27 Q1009

TAF N/A
No reported NOTAMs for that airfield.



MET'MAP, your aeronautical weather chart ! - Copyright ORBIFLY December 2007 - Disclaimer

ORBIFLY MET'MAP TEAM :

Programming & Development : Alexandra Zaïnal
Concept & Development : Baudouin d'Aumeries
Co-Development & Prog : Marc-Olivier Méhu
Technical & hardware support : Manuel Goepfert

Contact : metmap@orbifly.com




SOURCES & CREDITS :

   NOAA       Earth
Advisory